sensor_id;sensor_type;location;lat;lon;timestamp;pressure;altitude;pressure_sealevel;temperature;humidity
42847;BME280;28495;49.916;14.536;2023-01-29T00:01:04;97925.97;;;-2.68;69.81
42847;BME280;28495;49.916;14.536;2023-01-29T00:06:25;97913.41;;;-2.77;69.42
42847;BME280;28495;49.916;14.536;2023-01-29T00:11:46;97904.28;;;-2.91;69.56
42847;BME280;28495;49.916;14.536;2023-01-29T00:17:07;97906.09;;;-2.96;69.76
42847;BME280;28495;49.916;14.536;2023-01-29T00:22:29;97904.44;;;-3.00;69.52
42847;BME280;28495;49.916;14.536;2023-01-29T00:27:50;97915.59;;;-3.04;69.59
42847;BME280;28495;49.916;14.536;2023-01-29T00:33:11;97908.53;;;-2.91;69.61
42847;BME280;28495;49.916;14.536;2023-01-29T00:38:33;97898.84;;;-2.73;70.63
42847;BME280;28495;49.916;14.536;2023-01-29T00:43:54;97897.78;;;-2.62;70.02
42847;BME280;28495;49.916;14.536;2023-01-29T00:49:34;97905.44;;;-2.63;70.05
42847;BME280;28495;49.916;14.536;2023-01-29T00:54:57;97906.47;;;-2.70;69.60
42847;BME280;28495;49.916;14.536;2023-01-29T01:00:18;97915.91;;;-2.74;69.94
42847;BME280;28495;49.916;14.536;2023-01-29T01:05:40;97895.53;;;-2.77;69.39
42847;BME280;28495;49.916;14.536;2023-01-29T01:11:04;97902.31;;;-2.76;69.80
42847;BME280;28495;49.916;14.536;2023-01-29T01:16:25;97889.25;;;-2.62;69.70
42847;BME280;28495;49.916;14.536;2023-01-29T01:21:46;97885.47;;;-2.85;68.67
42847;BME280;28495;49.916;14.536;2023-01-29T01:27:07;97884.53;;;-2.81;70.22
42847;BME280;28495;49.916;14.536;2023-01-29T01:32:28;97874.09;;;-2.70;69.54
42847;BME280;28495;49.916;14.536;2023-01-29T01:37:49;97880.00;;;-2.66;69.80
42847;BME280;28495;49.916;14.536;2023-01-29T01:43:10;97875.31;;;-2.46;69.68
42847;BME280;28495;49.916;14.536;2023-01-29T01:48:30;97863.31;;;-2.42;69.55
42847;BME280;28495;49.916;14.536;2023-01-29T01:54:21;97866.66;;;-2.40;69.41
42847;BME280;28495;49.916;14.536;2023-01-29T01:59:47;97861.59;;;-2.41;69.71
42847;BME280;28495;49.916;14.536;2023-01-29T02:05:12;97872.31;;;-2.25;70.16
42847;BME280;28495;49.916;14.536;2023-01-29T02:10:52;97874.84;;;-2.24;70.11
42847;BME280;28495;49.916;14.536;2023-01-29T02:16:14;97861.06;;;-2.17;70.18
42847;BME280;28495;49.916;14.536;2023-01-29T02:33:40;97866.31;;;-2.23;69.82
42847;BME280;28495;49.916;14.536;2023-01-29T02:39:22;97850.94;;;-2.21;69.86
42847;BME280;28495;49.916;14.536;2023-01-29T02:44:51;97847.22;;;-2.06;69.98
42847;BME280;28495;49.916;14.536;2023-01-29T02:50:25;97855.19;;;-2.20;69.09
42847;BME280;28495;49.916;14.536;2023-01-29T02:55:57;97861.16;;;-2.21;69.30
42847;BME280;28495;49.916;14.536;2023-01-29T03:01:47;97862.09;;;-2.24;69.31
42847;BME280;28495;49.916;14.536;2023-01-29T03:07:09;97874.16;;;-2.32;69.31
42847;BME280;28495;49.916;14.536;2023-01-29T03:12:43;97897.09;;;-2.29;69.29
42847;BME280;28495;49.916;14.536;2023-01-29T03:18:09;97896.19;;;-2.25;69.58
42847;BME280;28495;49.916;14.536;2023-01-29T03:23:34;97900.59;;;-2.33;69.42
42847;BME280;28495;49.916;14.536;2023-01-29T03:29:14;97890.31;;;-2.30;69.35
42847;BME280;28495;49.916;14.536;2023-01-29T03:34:57;97884.22;;;-2.24;69.56
42847;BME280;28495;49.916;14.536;2023-01-29T03:40:21;97883.41;;;-2.26;69.64
42847;BME280;28495;49.916;14.536;2023-01-29T03:51:50;97874.59;;;-2.11;69.61
42847;BME280;28495;49.916;14.536;2023-01-29T04:08:29;97869.38;;;-2.07;69.17
42847;BME280;28495;49.916;14.536;2023-01-29T04:13:53;97864.31;;;-2.10;69.67
42847;BME280;28495;49.916;14.536;2023-01-29T04:19:15;97867.16;;;-2.22;69.18
42847;BME280;28495;49.916;14.536;2023-01-29T04:24:36;97877.47;;;-2.27;69.39
42847;BME280;28495;49.916;14.536;2023-01-29T04:35:43;97845.34;;;-2.39;69.17
42847;BME280;28495;49.916;14.536;2023-01-29T04:52:00;97834.16;;;-2.33;69.06
42847;BME280;28495;49.916;14.536;2023-01-29T04:57:39;97841.63;;;-2.24;69.13
42847;BME280;28495;49.916;14.536;2023-01-29T05:03:06;97829.97;;;-2.36;68.94
42847;BME280;28495;49.916;14.536;2023-01-29T05:08:30;97816.88;;;-2.59;68.87
42847;BME280;28495;49.916;14.536;2023-01-29T05:13:53;97815.97;;;-2.57;69.05
42847;BME280;28495;49.916;14.536;2023-01-29T05:19:14;97824.44;;;-2.56;68.80
42847;BME280;28495;49.916;14.536;2023-01-29T05:24:36;97822.00;;;-2.61;69.08
42847;BME280;28495;49.916;14.536;2023-01-29T05:29:57;97816.72;;;-2.52;69.27
42847;BME280;28495;49.916;14.536;2023-01-29T05:35:17;97820.19;;;-2.56;69.41
42847;BME280;28495;49.916;14.536;2023-01-29T05:40:38;97822.91;;;-2.64;68.28
42847;BME280;28495;49.916;14.536;2023-01-29T05:46:00;97828.22;;;-2.74;68.35
42847;BME280;28495;49.916;14.536;2023-01-29T05:51:21;97820.72;;;-2.82;68.49
42847;BME280;28495;49.916;14.536;2023-01-29T05:56:42;97807.81;;;-2.74;68.82
42847;BME280;28495;49.916;14.536;2023-01-29T06:02:02;97814.75;;;-2.81;68.94
42847;BME280;28495;49.916;14.536;2023-01-29T06:07:23;97812.19;;;-2.81;68.73
42847;BME280;28495;49.916;14.536;2023-01-29T06:12:44;97795.94;;;-2.77;69.10
42847;BME280;28495;49.916;14.536;2023-01-29T06:18:05;97779.13;;;-2.86;68.40
42847;BME280;28495;49.916;14.536;2023-01-29T06:23:26;97771.47;;;-2.86;68.27
42847;BME280;28495;49.916;14.536;2023-01-29T06:28:50;97764.16;;;-2.64;68.52
42847;BME280;28495;49.916;14.536;2023-01-29T06:34:11;97763.75;;;-2.83;68.59
42847;BME280;28495;49.916;14.536;2023-01-29T06:39:32;97762.72;;;-2.76;68.21
42847;BME280;28495;49.916;14.536;2023-01-29T06:44:56;97767.28;;;-2.90;67.95
42847;BME280;28495;49.916;14.536;2023-01-29T06:50:17;97775.81;;;-2.91;68.27
42847;BME280;28495;49.916;14.536;2023-01-29T06:55:39;97774.22;;;-2.95;68.57
42847;BME280;28495;49.916;14.536;2023-01-29T07:01:04;97785.00;;;-2.82;68.16
42847;BME280;28495;49.916;14.536;2023-01-29T07:06:27;97795.31;;;-2.87;68.63
42847;BME280;28495;49.916;14.536;2023-01-29T07:11:48;97794.44;;;-2.86;68.28
42847;BME280;28495;49.916;14.536;2023-01-29T07:17:10;97798.66;;;-2.85;68.00
42847;BME280;28495;49.916;14.536;2023-01-29T07:22:31;97807.78;;;-2.73;68.82
42847;BME280;28495;49.916;14.536;2023-01-29T07:27:52;97813.44;;;-2.58;68.53
42847;BME280;28495;49.916;14.536;2023-01-29T07:33:13;97812.91;;;-2.73;68.43
42847;BME280;28495;49.916;14.536;2023-01-29T07:38:34;97826.59;;;-2.77;68.37
42847;BME280;28495;49.916;14.536;2023-01-29T07:43:55;97836.81;;;-2.77;68.71
42847;BME280;28495;49.916;14.536;2023-01-29T07:49:16;97854.69;;;-2.79;68.19
42847;BME280;28495;49.916;14.536;2023-01-29T07:54:36;97829.81;;;-2.67;68.31
42847;BME280;28495;49.916;14.536;2023-01-29T07:59:57;97828.13;;;-2.70;68.28
42847;BME280;28495;49.916;14.536;2023-01-29T08:05:19;97844.25;;;-2.66;68.57
42847;BME280;28495;49.916;14.536;2023-01-29T08:10:40;97845.34;;;-2.78;67.74
42847;BME280;28495;49.916;14.536;2023-01-29T08:16:02;97868.16;;;-2.70;68.59
42847;BME280;28495;49.916;14.536;2023-01-29T08:21:23;97854.22;;;-2.54;68.64
42847;BME280;28495;49.916;14.536;2023-01-29T08:26:44;97872.91;;;-2.52;68.50
42847;BME280;28495;49.916;14.536;2023-01-29T08:32:08;97881.53;;;-2.59;68.91
42847;BME280;28495;49.916;14.536;2023-01-29T08:37:30;97879.16;;;-2.67;68.00
42847;BME280;28495;49.916;14.536;2023-01-29T08:42:51;97870.78;;;-2.73;68.80
42847;BME280;28495;49.916;14.536;2023-01-29T08:48:11;97859.44;;;-2.60;69.02
42847;BME280;28495;49.916;14.536;2023-01-29T08:53:32;97856.50;;;-2.41;68.82
42847;BME280;28495;49.916;14.536;2023-01-29T08:58:53;97856.59;;;-2.46;68.02
42847;BME280;28495;49.916;14.536;2023-01-29T09:04:14;97848.19;;;-2.51;68.77
42847;BME280;28495;49.916;14.536;2023-01-29T09:09:35;97852.31;;;-2.46;68.21
42847;BME280;28495;49.916;14.536;2023-01-29T09:14:57;97850.78;;;-2.53;68.30
42847;BME280;28495;49.916;14.536;2023-01-29T09:20:18;97849.88;;;-2.50;68.41
42847;BME280;28495;49.916;14.536;2023-01-29T09:25:42;97832.66;;;-2.42;68.28
42847;BME280;28495;49.916;14.536;2023-01-29T09:31:03;97844.91;;;-2.17;68.77
42847;BME280;28495;49.916;14.536;2023-01-29T09:36:24;97840.47;;;-2.10;68.58
42847;BME280;28495;49.916;14.536;2023-01-29T09:47:15;97836.44;;;-1.83;68.65
42847;BME280;28495;49.916;14.536;2023-01-29T09:52:40;97847.44;;;-1.79;67.94
42847;BME280;28495;49.916;14.536;2023-01-29T09:58:15;97849.13;;;-1.78;68.51
42847;BME280;28495;49.916;14.536;2023-01-29T10:03:53;97852.94;;;-1.96;68.23
42847;BME280;28495;49.916;14.536;2023-01-29T10:26:26;97797.09;;;-2.13;68.57
42847;BME280;28495;49.916;14.536;2023-01-29T10:31:52;97787.63;;;-2.10;67.88
42847;BME280;28495;49.916;14.536;2023-01-29T10:37:22;97788.19;;;-1.97;68.48
42847;BME280;28495;49.916;14.536;2023-01-29T10:43:06;97780.22;;;-1.85;67.82
42847;BME280;28495;49.916;14.536;2023-01-29T10:48:44;97783.25;;;-1.69;68.28
42847;BME280;28495;49.916;14.536;2023-01-29T10:59:55;97761.91;;;-1.67;67.40
42847;BME280;28495;49.916;14.536;2023-01-29T11:05:39;97747.00;;;-0.62;70.12
42847;BME280;28495;49.916;14.536;2023-01-29T11:11:17;97743.06;;;-0.73;68.25
42847;BME280;28495;49.916;14.536;2023-01-29T11:16:43;97739.03;;;-0.81;67.69
42847;BME280;28495;49.916;14.536;2023-01-29T11:22:12;97740.53;;;-1.03;67.49
42847;BME280;28495;49.916;14.536;2023-01-29T11:38:28;97729.91;;;-1.19;67.23
42847;BME280;28495;49.916;14.536;2023-01-29T11:43:49;97704.31;;;-1.21;67.51
42847;BME280;28495;49.916;14.536;2023-01-29T11:49:21;97693.44;;;-1.28;67.68
42847;BME280;28495;49.916;14.536;2023-01-29T11:54:54;97694.38;;;-1.30;67.59
42847;BME280;28495;49.916;14.536;2023-01-29T12:00:23;97679.28;;;-1.40;67.28
42847;BME280;28495;49.916;14.536;2023-01-29T12:05:58;97661.59;;;-1.47;67.34
42847;BME280;28495;49.916;14.536;2023-01-29T12:11:27;97658.09;;;-1.45;67.82
42847;BME280;28495;49.916;14.536;2023-01-29T12:16:53;97660.31;;;-1.32;67.81
42847;BME280;28495;49.916;14.536;2023-01-29T12:27:59;97636.38;;;-0.74;69.15
42847;BME280;28495;49.916;14.536;2023-01-29T12:33:38;97632.88;;;-0.99;67.88
42847;BME280;28495;49.916;14.536;2023-01-29T12:39:00;97623.78;;;-1.09;67.42
42847;BME280;28495;49.916;14.536;2023-01-29T12:44:40;97615.50;;;-1.17;67.64
42847;BME280;28495;49.916;14.536;2023-01-29T12:50:13;97612.91;;;-1.16;67.79
42847;BME280;28495;49.916;14.536;2023-01-29T12:55:44;97604.56;;;-0.67;68.53
42847;BME280;28495;49.916;14.536;2023-01-29T13:01:32;97601.69;;;-0.85;67.95
42847;BME280;28495;49.916;14.536;2023-01-29T13:07:09;97602.16;;;-0.99;67.96
42847;BME280;28495;49.916;14.536;2023-01-29T13:12:32;97600.41;;;-0.98;67.95
42847;BME280;28495;49.916;14.536;2023-01-29T13:18:06;97604.97;;;-1.08;67.64
42847;BME280;28495;49.916;14.536;2023-01-29T13:23:42;97596.84;;;-1.21;67.86
42847;BME280;28495;49.916;14.536;2023-01-29T13:29:03;97574.75;;;-1.24;67.81
42847;BME280;28495;49.916;14.536;2023-01-29T13:34:27;97566.13;;;-1.21;67.97
42847;BME280;28495;49.916;14.536;2023-01-29T13:39:52;97559.06;;;-1.13;67.95
42847;BME280;28495;49.916;14.536;2023-01-29T13:50:46;97555.59;;;-0.85;68.25
42847;BME280;28495;49.916;14.536;2023-01-29T13:56:55;97548.66;;;-0.81;67.99
42847;BME280;28495;49.916;14.536;2023-01-29T14:02:21;97550.22;;;-0.77;67.96
42847;BME280;28495;49.916;14.536;2023-01-29T14:13:26;97550.03;;;-0.71;67.97
42847;BME280;28495;49.916;14.536;2023-01-29T14:24:19;97549.09;;;-0.68;67.95
42847;BME280;28495;49.916;14.536;2023-01-29T14:29:40;97550.72;;;-0.66;68.39
42847;BME280;28495;49.916;14.536;2023-01-29T14:35:03;97544.06;;;-0.71;67.88
42847;BME280;28495;49.916;14.536;2023-01-29T14:40:31;97538.91;;;-0.70;68.05
42847;BME280;28495;49.916;14.536;2023-01-29T14:45:52;97530.53;;;-0.75;68.22
42847;BME280;28495;49.916;14.536;2023-01-29T14:51:15;97522.31;;;-0.85;67.63
42847;BME280;28495;49.916;14.536;2023-01-29T14:57:07;97529.38;;;-0.92;67.94
42847;BME280;28495;49.916;14.536;2023-01-29T15:02:38;97538.78;;;-0.67;72.39
42847;BME280;28495;49.916;14.536;2023-01-29T15:08:28;97531.91;;;0.32;70.25
42847;BME280;28495;49.916;14.536;2023-01-29T15:13:52;97533.34;;;0.15;68.95
42847;BME280;28495;49.916;14.536;2023-01-29T15:19:27;97517.03;;;-0.06;68.39
42847;BME280;28495;49.916;14.536;2023-01-29T15:25:06;97515.28;;;-0.29;68.02
42847;BME280;28495;49.916;14.536;2023-01-29T15:30:32;97499.25;;;-0.34;68.29
42847;BME280;28495;49.916;14.536;2023-01-29T15:35:58;97516.00;;;-0.49;68.06
42847;BME280;28495;49.916;14.536;2023-01-29T15:41:28;97512.00;;;-0.56;67.90
42847;BME280;28495;49.916;14.536;2023-01-29T15:46:52;97499.91;;;-0.78;67.97
42847;BME280;28495;49.916;14.536;2023-01-29T15:52:26;97509.66;;;-0.89;68.24
42847;BME280;28495;49.916;14.536;2023-01-29T15:57:49;97506.25;;;-0.90;68.15
42847;BME280;28495;49.916;14.536;2023-01-29T16:03:14;97508.28;;;-0.73;68.55
42847;BME280;28495;49.916;14.536;2023-01-29T16:08:35;97509.25;;;-0.77;68.47
42847;BME280;28495;49.916;14.536;2023-01-29T16:13:58;97507.31;;;-0.70;68.41
42847;BME280;28495;49.916;14.536;2023-01-29T16:19:25;97501.56;;;-0.77;68.65
42847;BME280;28495;49.916;14.536;2023-01-29T16:24:47;97494.59;;;-0.73;68.10
42847;BME280;28495;49.916;14.536;2023-01-29T16:30:15;97486.72;;;-0.67;68.25
42847;BME280;28495;49.916;14.536;2023-01-29T16:35:36;97484.59;;;-0.54;68.74
42847;BME280;28495;49.916;14.536;2023-01-29T16:41:13;97491.69;;;-0.63;67.77
42847;BME280;28495;49.916;14.536;2023-01-29T16:46:36;97504.75;;;-0.70;67.78
42847;BME280;28495;49.916;14.536;2023-01-29T16:52:24;97507.63;;;-0.80;67.88
42847;BME280;28495;49.916;14.536;2023-01-29T16:57:51;97512.25;;;-0.64;67.94
42847;BME280;28495;49.916;14.536;2023-01-29T17:03:14;97505.47;;;-0.67;68.05
42847;BME280;28495;49.916;14.536;2023-01-29T17:08:37;97504.19;;;-0.79;67.59
42847;BME280;28495;49.916;14.536;2023-01-29T17:14:01;97512.50;;;-0.72;68.03
42847;BME280;28495;49.916;14.536;2023-01-29T17:19:21;97516.84;;;-0.74;67.54
42847;BME280;28495;49.916;14.536;2023-01-29T17:24:45;97499.44;;;-0.89;67.73
42847;BME280;28495;49.916;14.536;2023-01-29T17:30:28;97508.16;;;-0.95;67.65
42847;BME280;28495;49.916;14.536;2023-01-29T17:35:49;97490.44;;;0.65;72.62
42847;BME280;28495;49.916;14.536;2023-01-29T17:41:43;97485.31;;;0.43;68.24
42847;BME280;28495;49.916;14.536;2023-01-29T17:47:12;97479.63;;;-0.11;67.33
42847;BME280;28495;49.916;14.536;2023-01-29T17:52:34;97467.28;;;-0.48;67.35
42847;BME280;28495;49.916;14.536;2023-01-29T17:57:55;97453.94;;;-0.57;66.93
42847;BME280;28495;49.916;14.536;2023-01-29T18:03:18;97463.41;;;-0.85;67.08
42847;BME280;28495;49.916;14.536;2023-01-29T18:08:39;97440.94;;;-1.02;67.00
42847;BME280;28495;49.916;14.536;2023-01-29T18:14:00;97424.06;;;-1.33;66.76
42847;BME280;28495;49.916;14.536;2023-01-29T18:19:34;97413.84;;;-1.60;66.85
42847;BME280;28495;49.916;14.536;2023-01-29T18:24:54;97412.09;;;-1.59;67.45
42847;BME280;28495;49.916;14.536;2023-01-29T18:30:15;97416.19;;;-1.54;67.45
42847;BME280;28495;49.916;14.536;2023-01-29T18:35:36;97417.38;;;-1.64;67.09
42847;BME280;28495;49.916;14.536;2023-01-29T18:41:08;97410.88;;;-1.74;67.64
42847;BME280;28495;49.916;14.536;2023-01-29T18:46:33;97411.63;;;-1.72;68.07
42847;BME280;28495;49.916;14.536;2023-01-29T18:51:53;97414.41;;;-1.78;67.71
42847;BME280;28495;49.916;14.536;2023-01-29T18:57:14;97407.00;;;-1.88;67.60
42847;BME280;28495;49.916;14.536;2023-01-29T19:02:55;97404.31;;;-1.83;68.25
42847;BME280;28495;49.916;14.536;2023-01-29T19:08:16;97420.63;;;-1.87;67.68
42847;BME280;28495;49.916;14.536;2023-01-29T19:13:37;97423.28;;;-1.90;67.88
42847;BME280;28495;49.916;14.536;2023-01-29T19:19:00;97415.13;;;-2.03;68.25
42847;BME280;28495;49.916;14.536;2023-01-29T19:24:21;97411.91;;;-2.08;68.14
42847;BME280;28495;49.916;14.536;2023-01-29T19:29:42;97415.34;;;-2.09;68.35
42847;BME280;28495;49.916;14.536;2023-01-29T19:35:03;97415.34;;;-2.09;68.35
42847;BME280;28495;49.916;14.536;2023-01-29T19:40:25;97419.00;;;-2.18;67.77
42847;BME280;28495;49.916;14.536;2023-01-29T19:45:46;97419.53;;;-2.37;67.88
42847;BME280;28495;49.916;14.536;2023-01-29T19:51:09;97413.09;;;-2.50;68.01
42847;BME280;28495;49.916;14.536;2023-01-29T19:56:33;97416.81;;;-2.61;67.73
42847;BME280;28495;49.916;14.536;2023-01-29T20:01:54;97411.25;;;-2.75;68.19
42847;BME280;28495;49.916;14.536;2023-01-29T20:07:15;97406.00;;;-2.70;68.53
42847;BME280;28495;49.916;14.536;2023-01-29T20:12:36;97395.22;;;-2.50;68.47
42847;BME280;28495;49.916;14.536;2023-01-29T20:17:57;97391.97;;;-2.55;68.59
42847;BME280;28495;49.916;14.536;2023-01-29T20:23:19;97387.63;;;-2.52;67.93
42847;BME280;28495;49.916;14.536;2023-01-29T20:28:57;97382.06;;;-2.66;67.69
42847;BME280;28495;49.916;14.536;2023-01-29T20:34:18;97381.06;;;-2.61;68.16
42847;BME280;28495;49.916;14.536;2023-01-29T20:39:39;97378.88;;;-2.45;68.62
42847;BME280;28495;49.916;14.536;2023-01-29T20:45:00;97366.91;;;-2.42;68.22
42847;BME280;28495;49.916;14.536;2023-01-29T20:50:20;97349.16;;;-2.47;68.17
42847;BME280;28495;49.916;14.536;2023-01-29T20:55:41;97339.34;;;-2.61;67.83
42847;BME280;28495;49.916;14.536;2023-01-29T21:01:12;97340.72;;;-2.79;67.53
42847;BME280;28495;49.916;14.536;2023-01-29T21:06:33;97335.63;;;-2.79;68.61
42847;BME280;28495;49.916;14.536;2023-01-29T21:11:54;97324.81;;;-2.87;67.80
42847;BME280;28495;49.916;14.536;2023-01-29T21:17:15;97327.44;;;-2.91;67.74
42847;BME280;28495;49.916;14.536;2023-01-29T21:22:36;97318.91;;;-2.89;68.65
42847;BME280;28495;49.916;14.536;2023-01-29T21:27:56;97310.44;;;-2.92;68.23
42847;BME280;28495;49.916;14.536;2023-01-29T21:33:17;97308.78;;;-2.94;67.94
42847;BME280;28495;49.916;14.536;2023-01-29T21:38:40;97308.94;;;-2.99;68.07
42847;BME280;28495;49.916;14.536;2023-01-29T21:44:01;97299.34;;;-2.91;68.92
42847;BME280;28495;49.916;14.536;2023-01-29T21:49:22;97302.59;;;-2.85;68.40
42847;BME280;28495;49.916;14.536;2023-01-29T21:54:43;97289.53;;;-2.74;69.01
42847;BME280;28495;49.916;14.536;2023-01-29T22:00:09;97279.72;;;-2.60;68.59
42847;BME280;28495;49.916;14.536;2023-01-29T22:05:32;97270.00;;;-2.47;68.34
42847;BME280;28495;49.916;14.536;2023-01-29T22:10:53;97260.81;;;-2.53;67.91
42847;BME280;28495;49.916;14.536;2023-01-29T22:16:15;97259.50;;;-2.66;68.27
42847;BME280;28495;49.916;14.536;2023-01-29T22:21:35;97260.06;;;-2.85;67.93
42847;BME280;28495;49.916;14.536;2023-01-29T22:26:57;97257.34;;;-2.80;68.07
42847;BME280;28495;49.916;14.536;2023-01-29T22:32:18;97235.13;;;-2.77;68.32
42847;BME280;28495;49.916;14.536;2023-01-29T22:37:38;97226.59;;;-2.76;69.05
42847;BME280;28495;49.916;14.536;2023-01-29T22:42:59;97203.56;;;-2.74;68.92
42847;BME280;28495;49.916;14.536;2023-01-29T22:48:21;97181.56;;;-2.78;68.60
42847;BME280;28495;49.916;14.536;2023-01-29T22:53:48;97187.66;;;-2.82;68.03
42847;BME280;28495;49.916;14.536;2023-01-29T22:59:09;97170.88;;;-2.89;68.34
42847;BME280;28495;49.916;14.536;2023-01-29T23:04:30;97170.09;;;-2.93;68.45
42847;BME280;28495;49.916;14.536;2023-01-29T23:09:50;97153.19;;;-2.96;68.82
42847;BME280;28495;49.916;14.536;2023-01-29T23:15:11;97150.53;;;-2.93;68.54
42847;BME280;28495;49.916;14.536;2023-01-29T23:20:32;97135.31;;;-2.96;68.87
42847;BME280;28495;49.916;14.536;2023-01-29T23:25:57;97121.66;;;-2.95;68.77
42847;BME280;28495;49.916;14.536;2023-01-29T23:31:37;97109.69;;;-2.93;69.02
42847;BME280;28495;49.916;14.536;2023-01-29T23:36:58;97102.38;;;-3.03;69.19
42847;BME280;28495;49.916;14.536;2023-01-29T23:42:19;97073.72;;;-3.12;68.71
42847;BME280;28495;49.916;14.536;2023-01-29T23:47:39;97067.06;;;-3.17;68.60
42847;BME280;28495;49.916;14.536;2023-01-29T23:53:00;97047.44;;;-3.14;68.92
42847;BME280;28495;49.916;14.536;2023-01-29T23:58:21;97040.44;;;-3.09;69.78
